createdAt,value
2019-04-16T00:01:59.852Z,99070.92
2019-04-16T00:04:53.713Z,99071.75
2019-04-16T00:07:41.128Z,99069.23
2019-04-16T00:10:20.838Z,99078.46
2019-04-16T00:13:09.545Z,99077.39
2019-04-16T00:15:41.445Z,99071.23
2019-04-16T00:18:12.824Z,99081.20
2019-04-16T00:20:47.799Z,99080.67
2019-04-16T00:23:37.796Z,99084.70
2019-04-16T00:26:09.163Z,99074.98
2019-04-16T00:28:42.374Z,99070.31
2019-04-16T00:31:15.477Z,99082.52
2019-04-16T00:33:46.288Z,99077.89
2019-04-16T00:36:18.051Z,99079.91
2019-04-16T00:38:53.954Z,99074.82
2019-04-16T00:41:24.425Z,99071.98
2019-04-16T00:43:55.027Z,99072.53
2019-04-16T00:46:28.586Z,99083.49
2019-04-16T00:48:59.694Z,99079.01
2019-04-16T00:51:30.278Z,99073.21
2019-04-16T00:54:03.699Z,99068.07
2019-04-16T00:56:35.988Z,99086.34
2019-04-16T00:59:06.745Z,99087.16
2019-04-16T01:01:37.433Z,99086.47
2019-04-16T01:04:10.820Z,99086.96
2019-04-16T01:06:41.512Z,99091.05
2019-04-16T01:09:12.097Z,99085.91
2019-04-16T01:11:42.753Z,99097.23
2019-04-16T01:14:14.893Z,99103.18
2019-04-16T01:16:47.300Z,99107.00
2019-04-16T01:19:18.055Z,99111.09
2019-04-16T01:21:48.639Z,99108.31
2019-04-16T01:24:20.334Z,99114.61
2019-04-16T01:26:51.772Z,99112.61
2019-04-16T01:29:22.676Z,99118.59
2019-04-16T01:31:57.991Z,99117.40
2019-04-16T01:34:30.129Z,99110.97
2019-04-16T01:37:08.424Z,99108.45
2019-04-16T01:39:40.601Z,99108.28
2019-04-16T01:42:11.238Z,99109.78
2019-04-16T01:44:41.940Z,99110.45
2019-04-16T01:47:14.842Z,99117.44
2019-04-16T01:49:45.463Z,99111.77
2019-04-16T01:52:18.739Z,99113.59
2019-04-16T01:54:48.467Z,99114.63
2019-04-16T01:57:19.038Z,99114.14
2019-04-16T01:59:50.700Z,99111.31
2019-04-16T02:02:21.594Z,99117.98
2019-04-16T02:04:52.821Z,99128.94
2019-04-16T02:07:27.751Z,99126.92
2019-04-16T02:09:55.947Z,99130.21
2019-04-16T02:12:26.580Z,99131.20
2019-04-16T02:14:58.747Z,99132.36
2019-04-16T02:17:32.410Z,99140.18
2019-04-16T02:20:06.165Z,99151.94
2019-04-16T02:22:35.342Z,99142.83
2019-04-16T02:25:06.690Z,99142.99
2019-04-16T02:27:37.287Z,99144.18
2019-04-16T02:30:08.164Z,99146.97
2019-04-16T02:32:38.717Z,99144.81
2019-04-16T02:35:11.110Z,99143.69
2019-04-16T02:37:41.959Z,99150.47
2019-04-16T02:40:17.032Z,99148.66
2019-04-16T02:42:45.157Z,99156.28
2019-04-16T02:45:23.022Z,99147.15
2019-04-16T02:47:49.020Z,99152.97
2019-04-16T02:50:32.289Z,99156.61
2019-04-16T02:53:04.960Z,99155.45
2019-04-16T02:55:42.535Z,99158.94
2019-04-16T02:58:22.491Z,99156.81
2019-04-16T03:00:56.314Z,99162.92
2019-04-16T03:03:40.333Z,99166.41
2019-04-16T03:06:10.926Z,99171.58
2019-04-16T03:08:41.748Z,99175.06
2019-04-16T03:11:13.738Z,99176.05
2019-04-16T03:13:45.011Z,99176.38
2019-04-16T03:16:29.809Z,99174.73
2019-04-16T03:19:02.095Z,99183.34
2019-04-16T03:21:32.687Z,99186.36
2019-04-16T03:24:08.031Z,99189.19
2019-04-16T03:26:35.732Z,99195.17
2019-04-16T03:29:08.612Z,99193.84
2019-04-16T03:31:39.365Z,99203.14
2019-04-16T03:34:10.113Z,99203.47
2019-04-16T03:36:40.886Z,99204.64
2019-04-16T03:39:14.062Z,99209.45
2019-04-16T03:41:44.051Z,99215.23
2019-04-16T03:44:14.692Z,99214.91
2019-04-16T03:46:46.762Z,99216.91
2019-04-16T03:49:17.834Z,99221.38
2019-04-16T03:51:48.596Z,99230.69
2019-04-16T03:54:22.482Z,99228.85
2019-04-16T03:56:52.295Z,99236.48
2019-04-16T03:59:22.985Z,99235.52
2019-04-16T04:01:53.816Z,99250.29
2019-04-16T04:04:28.962Z,99248.14
2019-04-16T04:06:56.923Z,99251.45
2019-04-16T04:09:27.552Z,99252.61
2019-04-16T04:11:59.758Z,99255.44
2019-04-16T04:14:31.943Z,99265.88
2019-04-16T04:17:06.615Z,99262.55
2019-04-16T04:19:35.349Z,99264.72
2019-04-16T04:22:07.501Z,99272.05
2019-04-16T04:24:38.254Z,99272.22
2019-04-16T04:27:12.822Z,99268.55
2019-04-16T04:29:41.305Z,99278.17
2019-04-16T04:32:11.902Z,99275.36
2019-04-16T04:34:42.504Z,99270.52
2019-04-16T04:37:15.539Z,99280.33
2019-04-16T04:39:46.334Z,99287.31
2019-04-16T04:42:19.558Z,99284.81
2019-04-16T04:44:54.775Z,99282.16
2019-04-16T04:47:25.375Z,99282.36
2019-04-16T04:49:55.977Z,99280.19
2019-04-16T04:52:27.827Z,99279.22
2019-04-16T04:54:59.004Z,99280.70
2019-04-16T04:57:31.256Z,99286.30
2019-04-16T05:00:02.495Z,99281.03
2019-04-16T05:02:33.231Z,99282.00
2019-04-16T05:05:06.833Z,99287.00
2019-04-16T05:07:40.258Z,99283.98
2019-04-16T05:10:10.881Z,99286.69
2019-04-16T05:12:43.241Z,99288.82
2019-04-16T05:15:21.592Z,99289.45
2019-04-16T05:18:00.098Z,99291.63
2019-04-16T05:20:59.888Z,99293.61
2019-04-16T05:23:38.018Z,99295.29
2019-04-16T05:26:23.339Z,99297.40
2019-04-16T05:29:02.309Z,99292.61
2019-04-16T05:31:43.431Z,99291.58
2019-04-16T05:34:19.672Z,99299.55
2019-04-16T05:37:10.603Z,99292.89
2019-04-16T05:39:42.683Z,99293.53
2019-04-16T05:42:16.154Z,99302.86
2019-04-16T05:44:47.064Z,99307.37
2019-04-16T05:47:20.540Z,99305.52
2019-04-16T05:49:57.879Z,99308.52
2019-04-16T05:52:35.959Z,99310.20
2019-04-16T05:55:41.829Z,99313.02
2019-04-16T05:58:31.604Z,99314.67
2019-04-16T06:01:13.801Z,99315.42
2019-04-16T06:03:53.324Z,99313.89
2019-04-16T06:06:31.187Z,99310.72
2019-04-16T06:08:58.989Z,99313.86
2019-04-16T06:11:35.719Z,99315.49
2019-04-16T06:14:04.619Z,99315.28
2019-04-16T06:16:38.317Z,99316.17
2019-04-16T06:19:31.511Z,99314.00
2019-04-16T06:22:03.777Z,99317.60
2019-04-16T06:24:40.148Z,99322.34
2019-04-16T06:27:21.806Z,99316.80
2019-04-16T06:30:03.077Z,99317.95
2019-04-16T06:32:35.323Z,99314.77
2019-04-16T06:35:19.850Z,99326.50
2019-04-16T06:38:01.160Z,99327.44
2019-04-16T06:40:39.539Z,99333.16
2019-04-16T06:43:25.186Z,99330.81
2019-04-16T06:46:09.478Z,99339.54
2019-04-16T06:48:42.575Z,99338.70
2019-04-16T06:51:18.780Z,99338.42
2019-04-16T06:54:06.097Z,99343.08
2019-04-16T06:56:54.390Z,99340.38
2019-04-16T06:59:39.118Z,99341.89
2019-04-16T07:02:30.014Z,99351.91
2019-04-16T07:05:06.995Z,99342.83
2019-04-16T07:07:54.051Z,99341.36
2019-04-16T07:10:28.924Z,99349.39
2019-04-16T07:12:58.957Z,99347.63
2019-04-16T07:15:29.669Z,99354.90
2019-04-16T07:18:05.402Z,99350.58
2019-04-16T07:20:35.025Z,99355.78
2019-04-16T07:23:10.584Z,99350.66
2019-04-16T07:25:44.223Z,99349.97
2019-04-16T07:28:18.446Z,99358.41
2019-04-16T07:45:56.092Z,99355.29
2019-04-16T07:48:46.480Z,99356.59
2019-04-16T07:51:21.926Z,99358.94
2019-04-16T07:54:09.565Z,99362.24
2019-04-16T07:56:42.098Z,99358.89
2019-04-16T07:59:13.046Z,99359.72
2019-04-16T08:01:47.793Z,99353.71
2019-04-16T08:04:25.481Z,99366.38
2019-04-16T08:06:48.975Z,99361.23
2019-04-16T08:09:19.990Z,99360.86
2019-04-16T08:12:03.123Z,99367.48
2019-04-16T08:14:37.340Z,99365.69
2019-04-16T08:17:10.146Z,99361.63
2019-04-16T08:19:41.259Z,99354.92
2019-04-16T08:22:15.480Z,99347.45
2019-04-16T08:24:59.652Z,99354.53
2019-04-16T08:27:30.564Z,99353.11
2019-04-16T08:47:27.751Z,99344.41
2019-04-16T08:50:03.785Z,99346.89
2019-04-16T08:52:34.988Z,99345.94
2019-04-16T08:55:07.751Z,99349.52
2019-04-16T08:57:38.389Z,99343.31
2019-04-16T09:00:14.099Z,99335.64
2019-04-16T09:02:43.514Z,99346.92
2019-04-16T09:05:14.175Z,99339.91
2019-04-16T09:07:44.936Z,99337.77
2019-04-16T09:10:23.709Z,99345.77
2019-04-16T09:13:03.012Z,99359.34
2019-04-16T09:15:32.416Z,99363.16
2019-04-16T09:18:04.770Z,99367.08
2019-04-16T09:20:37.839Z,99375.01
2019-04-16T09:37:47.869Z,99376.00
2019-04-16T10:19:30.162Z,99410.44
2019-04-16T10:22:01.168Z,99416.30
2019-04-16T10:24:52.568Z,99415.83
2019-04-16T10:27:32.484Z,99421.34
2019-04-16T10:56:01.910Z,99422.37
2019-04-16T10:58:37.137Z,99425.66
2019-04-16T11:27:39.290Z,99431.64
2019-04-16T11:30:17.867Z,99433.37
2019-04-16T11:32:48.695Z,99435.54
2019-04-16T11:35:22.868Z,99436.05
2019-04-16T11:37:53.067Z,99439.83
2019-04-16T11:40:23.762Z,99440.20
2019-04-16T11:42:54.424Z,99437.02
2019-04-16T11:45:25.161Z,99437.48
2019-04-16T11:47:55.758Z,99444.16
2019-04-16T11:50:26.442Z,99448.48
2019-04-16T11:52:58.726Z,99444.52
2019-04-16T11:55:31.149Z,99443.52
2019-04-16T11:58:02.041Z,99442.16
2019-04-16T12:00:37.554Z,99445.02
2019-04-16T12:03:18.647Z,99443.28
2019-04-16T12:06:07.079Z,99446.08
2019-04-16T12:08:51.296Z,99452.48
2019-04-16T12:11:24.029Z,99449.19
2019-04-16T12:13:56.286Z,99455.03
2019-04-16T12:16:31.473Z,99454.52
2019-04-16T12:19:20.151Z,99447.19
2019-04-16T12:21:52.661Z,99453.73
2019-04-16T12:24:41.063Z,99455.36
2019-04-16T12:27:22.994Z,99458.97
2019-04-16T12:29:58.230Z,99457.46
2019-04-16T12:32:31.491Z,99455.31
2019-04-16T12:35:12.305Z,99458.89
2019-04-16T12:38:01.666Z,99461.20
2019-04-16T12:40:53.193Z,99453.92
2019-04-16T12:43:25.466Z,99453.22
2019-04-16T12:46:15.161Z,99448.55
2019-04-16T12:48:47.591Z,99450.14
2019-04-16T12:51:21.475Z,99446.60
2019-04-16T12:54:13.589Z,99451.41
2019-04-16T12:57:02.663Z,99449.23
2019-04-16T12:59:34.856Z,99453.75
2019-04-16T13:02:25.086Z,99454.62
2019-04-16T13:04:58.227Z,99454.27
2019-04-16T13:07:30.566Z,99457.47
2019-04-16T13:10:21.687Z,99457.64
2019-04-16T13:12:57.389Z,99450.61
2019-04-16T13:15:29.716Z,99458.62
2019-04-16T13:18:07.217Z,99459.11
2019-04-16T13:21:03.959Z,99464.75
2019-04-16T13:23:35.384Z,99464.53
2019-04-16T13:26:24.208Z,99461.55
2019-04-16T13:28:56.170Z,99466.31
2019-04-16T13:31:26.959Z,99464.70
2019-04-16T13:34:00.468Z,99464.41
2019-04-16T13:36:31.107Z,99470.78
2019-04-16T13:39:09.530Z,99464.25
2019-04-16T13:41:40.581Z,99467.87
2019-04-16T13:44:16.819Z,99476.44
2019-04-16T13:59:30.178Z,99471.72
2019-04-16T14:02:01.365Z,99469.64
2019-04-16T14:04:36.766Z,99469.27
2019-04-16T14:07:05.711Z,99475.66
2019-04-16T14:09:38.393Z,99473.37
2019-04-16T14:12:10.082Z,99481.02
2019-04-16T14:14:40.691Z,99479.10
2019-04-16T14:17:17.685Z,99480.20
2019-04-16T14:19:47.110Z,99480.94
2019-04-16T14:22:21.625Z,99488.13
2019-04-16T14:24:51.877Z,99485.36
2019-04-16T14:27:22.509Z,99490.34
2019-04-16T14:29:53.270Z,99485.60
2019-04-16T14:32:24.027Z,99491.02
2019-04-16T14:34:57.758Z,99484.45
2019-04-16T14:37:28.835Z,99493.14
2019-04-16T14:40:04.376Z,99486.20
2019-04-16T14:42:35.019Z,99486.94
2019-04-16T14:45:17.925Z,99485.55
2019-04-16T14:47:48.658Z,99491.00
2019-04-16T14:50:20.039Z,99486.70
2019-04-16T14:52:53.844Z,99489.81
2019-04-16T15:07:45.883Z,99487.40
2019-04-16T15:10:18.228Z,99492.67
2019-04-16T15:12:50.439Z,99486.45
2019-04-16T15:15:28.816Z,99493.47
2019-04-16T15:18:01.033Z,99483.64
2019-04-16T15:20:55.966Z,99490.19
2019-04-16T15:23:32.873Z,99500.05
2019-04-16T15:26:15.833Z,99493.83
2019-04-16T15:28:54.063Z,99500.81
2019-04-16T15:31:43.457Z,99493.28
2019-04-16T15:34:23.771Z,99493.32
2019-04-16T15:36:56.850Z,99494.61
2019-04-16T15:39:29.094Z,99501.49
2019-04-16T15:42:04.305Z,99498.19
2019-04-16T15:44:49.505Z,99504.19
2019-04-16T15:47:21.694Z,99504.69
2019-04-16T15:49:56.954Z,99504.36
2019-04-16T15:52:29.651Z,99510.56
2019-04-16T15:55:08.001Z,99503.91
2019-04-16T15:57:43.483Z,99513.87
2019-04-16T16:00:27.037Z,99512.02
2019-04-16T16:03:16.719Z,99511.06
2019-04-16T16:06:07.452Z,99511.55
2019-04-16T16:08:52.090Z,99515.26
2019-04-16T16:11:27.205Z,99519.94
2019-04-16T16:14:01.129Z,99520.78
2019-04-16T16:16:41.660Z,99521.63
2019-04-16T16:19:11.199Z,99524.14
2019-04-16T16:21:39.605Z,99529.47
2019-04-16T16:24:10.201Z,99535.48
2019-04-16T16:26:43.371Z,99538.14
2019-04-16T16:29:18.854Z,99544.47
2019-04-16T16:31:52.692Z,99545.58
2019-04-16T16:34:27.636Z,99541.76
2019-04-16T16:37:00.647Z,99543.75
2019-04-16T16:39:32.522Z,99554.11
2019-04-16T16:42:03.471Z,99553.44
2019-04-16T16:44:39.852Z,99555.62
2019-04-16T16:47:32.945Z,99554.80
2019-04-16T16:50:07.524Z,99566.45
2019-04-16T16:57:57.516Z,99581.59
2019-04-16T17:00:48.275Z,99585.42
2019-04-16T17:03:29.516Z,99584.07
2019-04-16T17:06:00.453Z,99584.23
2019-04-16T17:08:35.077Z,99575.44
2019-04-16T17:11:15.532Z,99579.09
2019-04-16T17:13:38.171Z,99585.28
2019-04-16T17:16:13.564Z,99578.94
2019-04-16T17:18:45.474Z,99581.77
2019-04-16T17:21:16.944Z,99587.27
2019-04-16T17:23:47.661Z,99594.63
2019-04-16T17:26:19.110Z,99599.45
2019-04-16T17:28:51.304Z,99602.77
2019-04-16T17:31:21.929Z,99595.77
2019-04-16T17:33:56.657Z,99599.93
2019-04-16T17:36:27.499Z,99597.79
2019-04-16T17:38:59.670Z,99605.27
2019-04-16T17:41:35.061Z,99602.11
2019-04-16T17:44:07.449Z,99607.92
2019-04-16T17:46:42.511Z,99604.27
2019-04-16T17:49:26.693Z,99605.94
2019-04-16T17:52:05.541Z,99611.58
2019-04-16T17:54:40.941Z,99612.73
2019-04-16T17:57:30.237Z,99613.73
2019-04-16T18:00:07.202Z,99619.41
2019-04-16T18:02:55.219Z,99620.75
2019-04-16T18:05:36.267Z,99620.61
2019-04-16T18:08:25.854Z,99625.92
2019-04-16T18:11:06.113Z,99630.22
2019-04-16T18:13:41.322Z,99634.87
2019-04-16T18:16:16.498Z,99635.70
2019-04-16T18:18:53.563Z,99629.38
2019-04-16T18:21:34.372Z,99634.51
2019-04-16T18:24:24.809Z,99626.88
2019-04-16T18:27:16.439Z,99633.31
2019-04-16T18:30:05.154Z,99630.78
2019-04-16T18:32:36.990Z,99624.94
2019-04-16T18:35:21.463Z,99634.41
2019-04-16T18:37:56.607Z,99629.94
2019-04-16T18:40:30.460Z,99624.91
2019-04-16T18:43:19.362Z,99615.08
2019-04-16T18:45:59.091Z,99616.08
2019-04-16T18:48:44.918Z,99617.57
2019-04-16T18:51:15.526Z,99618.53
2019-04-16T18:53:46.101Z,99617.48
2019-04-16T18:56:18.151Z,99618.30
2019-04-16T18:58:52.949Z,99615.31
2019-04-16T19:01:32.588Z,99614.83
2019-04-16T19:04:00.205Z,99607.66
2019-04-16T19:06:30.912Z,99611.45
2019-04-16T19:09:01.559Z,99618.45
2019-04-16T19:11:32.162Z,99616.84
2019-04-16T19:14:04.726Z,99614.67
2019-04-16T19:16:36.773Z,99617.97
2019-04-16T19:19:07.542Z,99613.83
2019-04-16T19:21:42.625Z,99608.88
2019-04-16T19:24:14.129Z,99610.41
2019-04-16T19:26:44.797Z,99608.75
2019-04-16T19:29:17.891Z,99611.73
2019-04-16T19:31:48.482Z,99608.52
2019-04-16T19:34:26.487Z,99604.13
2019-04-16T19:37:00.177Z,99613.91
2019-04-16T19:39:30.548Z,99607.94
2019-04-16T19:42:01.315Z,99614.75
2019-04-16T19:44:33.701Z,99607.42
2019-04-16T19:47:05.637Z,99607.14
2019-04-16T19:49:36.166Z,99609.64
2019-04-16T19:52:08.215Z,99608.31
2019-04-16T19:54:43.030Z,99606.17
2019-04-16T19:57:17.535Z,99604.00
2019-04-16T19:59:50.277Z,99615.11
2019-04-16T20:02:20.512Z,99608.59
2019-04-16T20:04:51.201Z,99612.09
2019-04-16T20:07:21.937Z,99610.13
2019-04-16T20:09:54.505Z,99615.11
2019-04-16T20:12:27.954Z,99618.94
2019-04-16T20:14:57.625Z,99620.91
2019-04-16T20:17:28.481Z,99614.80
2019-04-16T20:20:02.126Z,99619.06
2019-04-16T20:22:33.055Z,99623.94
2019-04-16T20:25:04.666Z,99620.07
2019-04-16T20:27:36.190Z,99617.41
2019-04-16T20:30:08.432Z,99616.39
2019-04-16T20:32:42.280Z,99624.22
2019-04-16T20:35:11.774Z,99618.73
2019-04-16T20:37:43.539Z,99624.41
2019-04-16T20:40:14.644Z,99621.75
2019-04-16T20:42:46.741Z,99612.92
2019-04-16T20:45:17.454Z,99613.73
2019-04-16T20:47:48.105Z,99616.27
2019-04-16T20:50:20.879Z,99618.45
2019-04-16T20:52:51.291Z,99619.45
2019-04-16T20:55:21.979Z,99608.52
2019-04-16T20:57:55.324Z,99608.51
2019-04-16T21:00:32.764Z,99606.34
2019-04-16T21:03:03.908Z,99607.19
2019-04-16T21:05:37.153Z,99607.67
2019-04-16T21:08:07.820Z,99603.36
2019-04-16T21:10:38.534Z,99604.00
2019-04-16T21:13:09.272Z,99604.89
2019-04-16T21:15:40.004Z,99599.05
2019-04-16T21:18:12.107Z,99597.20
2019-04-16T21:20:43.001Z,99594.86
2019-04-16T21:23:13.775Z,99601.18
2019-04-16T21:25:45.985Z,99601.03
2019-04-16T21:28:21.074Z,99602.11
2019-04-16T21:30:53.277Z,99602.63
2019-04-16T21:33:27.112Z,99596.14
2019-04-16T21:36:03.141Z,99596.31
2019-04-16T21:38:33.240Z,99598.80
2019-04-16T21:41:03.833Z,99597.63
2019-04-16T21:43:39.581Z,99599.97
2019-04-16T21:46:08.179Z,99594.53
2019-04-16T21:48:38.883Z,99598.84
2019-04-16T21:51:09.514Z,99599.33
2019-04-16T21:53:41.677Z,99598.84
2019-04-16T21:56:14.115Z,99598.52
2019-04-16T21:58:46.575Z,99601.86
2019-04-16T22:01:21.465Z,99602.34
2019-04-16T22:03:59.847Z,99599.20
2019-04-16T22:06:30.476Z,99600.53
2019-04-16T22:09:03.571Z,99600.17
2019-04-16T22:11:33.825Z,99601.02
2019-04-16T22:14:04.665Z,99596.70
2019-04-16T22:16:35.383Z,99597.38
2019-04-16T22:19:06.019Z,99603.02
2019-04-16T22:21:39.670Z,99602.54
2019-04-16T22:24:09.133Z,99602.51
2019-04-16T22:26:39.836Z,99597.35
2019-04-16T22:29:15.437Z,99600.85
2019-04-16T22:31:42.889Z,99599.69
2019-04-16T22:34:13.603Z,99591.19
2019-04-16T22:36:44.417Z,99592.69
2019-04-16T22:39:16.934Z,99597.52
2019-04-16T22:42:05.376Z,99590.37
2019-04-16T22:44:52.847Z,99590.55
2019-04-16T22:47:30.894Z,99584.38
2019-04-16T22:50:14.788Z,99581.40
2019-04-16T22:52:35.017Z,99577.25
2019-04-16T22:55:06.787Z,99579.09
2019-04-16T22:57:40.348Z,99579.42
2019-04-16T23:00:13.289Z,99569.44
2019-04-16T23:02:47.817Z,99578.91
2019-04-16T23:05:16.576Z,99575.56
2019-04-16T23:07:47.342Z,99577.58
2019-04-16T23:10:21.208Z,99580.72
2019-04-16T23:12:50.233Z,99583.57
2019-04-16T23:15:21.037Z,99575.08
2019-04-16T23:17:52.767Z,99575.20
2019-04-16T23:20:29.449Z,99577.05
2019-04-16T23:22:55.801Z,99580.52
2019-04-16T23:25:28.211Z,99581.81
2019-04-16T23:28:00.333Z,99583.58
2019-04-16T23:30:31.013Z,99583.23
2019-04-16T23:33:01.929Z,99580.52
2019-04-16T23:35:34.303Z,99576.85
2019-04-16T23:38:05.020Z,99573.98
2019-04-16T23:40:35.898Z,99580.63
2019-04-16T23:43:14.146Z,99578.80
2019-04-16T23:45:55.633Z,99572.80
2019-04-16T23:48:28.414Z,99568.83
2019-04-16T23:51:04.446Z,99562.71
2019-04-16T23:53:49.096Z,99566.58
2019-04-16T23:56:27.406Z,99566.55
2019-04-16T23:59:04.624Z,99563.56
